Time;durP1;ratioP1;P1;durP2;ratioP2;P2;SDS_P1;SDS_P2;PMS_P1;PMS_P2;Temp;Humidity;BMP_temperature;BMP_pressure;BME280_temperature;BME280_humidity;BME280_pressure;Samples;Min_cycle;Max_cycle;Signal;HPM_P1;HPM_P2
2024/01/28 00:01:45;;;;;;;5.50;3.28;;;;;;;;;;5103289;27;40901;-68
2024/01/28 00:04:13;;;;;;;5.72;3.72;;;;;;;;;;5101758;27;41595;-68
2024/01/28 00:06:41;;;;;;;5.18;3.50;;;;;;;;;;5092319;28;42799;-68
2024/01/28 00:09:09;;;;;;;7.43;3.58;;;;;;;;;;5102164;28;42164;-68
2024/01/28 00:11:39;;;;;;;9.75;4.22;;;;;;;;;;5091134;27;41912;-68
2024/01/28 00:14:08;;;;;;;5.50;3.20;;;;;;;;;;5103258;27;39748;-68
2024/01/28 00:16:36;;;;;;;6.10;3.65;;;;;;;;;;5106677;27;41519;-68
2024/01/28 00:19:05;;;;;;;5.95;3.50;;;;;;;;;;5100783;27;42869;-68
2024/01/28 00:21:34;;;;;;;5.18;3.70;;;;;;;;;;5093288;27;40144;-68
2024/01/28 00:24:04;;;;;;;7.85;3.58;;;;;;;;;;5091980;27;42093;-68
2024/01/28 00:26:36;;;;;;;6.90;3.72;;;;;;;;;;5106315;28;42161;-68
2024/01/28 00:29:04;;;;;;;6.95;3.95;;;;;;;;;;5101419;28;40095;-68
2024/01/28 00:31:34;;;;;;;6.13;3.58;;;;;;;;;;5096897;28;42207;-68
2024/01/28 00:34:02;;;;;;;5.28;3.38;;;;;;;;;;5090505;27;40267;-68
2024/01/28 00:36:30;;;;;;;5.50;3.28;;;;;;;;;;5088238;28;42528;-68
2024/01/28 00:38:58;;;;;;;7.13;3.50;;;;;;;;;;5088779;27;42995;-68
2024/01/28 00:41:29;;;;;;;5.50;3.40;;;;;;;;;;5088096;27;40739;-68
2024/01/28 00:43:58;;;;;;;4.93;3.40;;;;;;;;;;5096994;27;42634;-68
2024/01/28 00:46:26;;;;;;;7.15;3.47;;;;;;;;;;5094902;27;42212;-67
2024/01/28 00:48:55;;;;;;;6.90;3.92;;;;;;;;;;5093415;28;41819;-68
2024/01/28 00:51:23;;;;;;;5.38;3.15;;;;;;;;;;5106170;27;42178;-68
2024/01/28 00:53:51;;;;;;;6.00;3.42;;;;;;;;;;5098744;27;40149;-68
2024/01/28 00:56:19;;;;;;;4.28;3.10;;;;;;;;;;5096253;28;41170;-68
2024/01/28 00:58:47;;;;;;;5.13;3.20;;;;;;;;;;5108428;27;42046;-68
2024/01/28 01:01:15;;;;;;;6.63;3.60;;;;;;;;;;5107645;27;39922;-68
2024/01/28 01:03:43;;;;;;;6.50;4.05;;;;;;;;;;5104126;27;41601;-67
2024/01/28 01:06:13;;;;;;;6.35;3.40;;;;;;;;;;5108477;27;43178;-68
2024/01/28 01:08:41;;;;;;;6.13;3.72;;;;;;;;;;5106673;27;41314;-68
2024/01/28 01:11:09;;;;;;;6.68;3.40;;;;;;;;;;5102921;27;42461;-68
2024/01/28 01:13:37;;;;;;;4.45;3.08;;;;;;;;;;5104528;27;42021;-68
2024/01/28 01:16:05;;;;;;;5.97;3.40;;;;;;;;;;5105653;27;41114;-68
2024/01/28 01:18:33;;;;;;;7.30;3.42;;;;;;;;;;5107969;27;41712;-68
2024/01/28 01:21:01;;;;;;;6.22;3.40;;;;;;;;;;5107123;27;39777;-68
2024/01/28 01:23:31;;;;;;;6.50;3.15;;;;;;;;;;5103204;28;41417;-68
2024/01/28 01:25:59;;;;;;;5.32;3.33;;;;;;;;;;5095253;27;43680;-68
2024/01/28 01:28:31;;;;;;;7.10;3.95;;;;;;;;;;5096370;28;39723;-68
2024/01/28 01:31:00;;;;;;;5.85;3.20;;;;;;;;;;5098759;27;41429;-68
2024/01/28 01:33:28;;;;;;;7.00;3.95;;;;;;;;;;5104195;28;43849;-68
2024/01/28 01:35:56;;;;;;;5.68;3.20;;;;;;;;;;5106191;27;40912;-68
2024/01/28 01:38:24;;;;;;;7.13;4.13;;;;;;;;;;5100303;27;43207;-68
2024/01/28 01:40:54;;;;;;;5.38;3.20;;;;;;;;;;5095700;27;40727;-67
2024/01/28 01:43:23;;;;;;;6.70;3.50;;;;;;;;;;5102055;27;42554;-68
2024/01/28 01:45:52;;;;;;;7.00;3.45;;;;;;;;;;5102964;27;43133;-68
2024/01/28 01:48:20;;;;;;;6.47;3.30;;;;;;;;;;5092638;27;41233;-68
2024/01/28 01:50:48;;;;;;;5.47;3.42;;;;;;;;;;5091023;27;42236;-68
2024/01/28 01:53:16;;;;;;;8.18;3.92;;;;;;;;;;5089992;27;42034;-68
2024/01/28 01:55:44;;;;;;;5.57;3.63;;;;;;;;;;5096628;27;41359;-68
2024/01/28 01:58:13;;;;;;;6.22;3.30;;;;;;;;;;5096047;27;41684;-68
2024/01/28 02:00:41;;;;;;;5.40;3.40;;;;;;;;;;5098820;27;40167;-68
2024/01/28 02:03:09;;;;;;;5.93;3.40;;;;;;;;;;5088559;27;41657;-68
2024/01/28 02:05:39;;;;;;;7.82;3.80;;;;;;;;;;5105390;27;42819;-68
2024/01/28 02:08:07;;;;;;;5.85;3.40;;;;;;;;;;5097508;27;39958;-68
2024/01/28 02:10:35;;;;;;;7.03;4.00;;;;;;;;;;5087405;28;41948;-68
2024/01/28 02:13:03;;;;;;;5.30;3.38;;;;;;;;;;5091735;27;42638;-68
2024/01/28 02:15:37;;;;;;;5.55;3.50;;;;;;;;;;5091575;27;41260;-68
2024/01/28 02:18:06;;;;;;;5.85;3.50;;;;;;;;;;5101075;27;42050;-68
2024/01/28 02:20:34;;;;;;;5.25;3.30;;;;;;;;;;5093960;27;40867;-68
2024/01/28 02:23:02;;;;;;;6.47;3.10;;;;;;;;;;5095742;28;43049;-68
2024/01/28 02:25:31;;;;;;;6.07;2.88;;;;;;;;;;5092320;27;41810;-68
2024/01/28 02:27:59;;;;;;;5.13;3.20;;;;;;;;;;5095619;28;41121;-68
2024/01/28 02:30:27;;;;;;;5.40;3.20;;;;;;;;;;5099998;27;41967;-68
2024/01/28 02:32:55;;;;;;;5.05;3.17;;;;;;;;;;5099715;27;41839;-68
2024/01/28 02:35:23;;;;;;;5.05;3.50;;;;;;;;;;5094456;28;40354;-68
2024/01/28 02:37:51;;;;;;;6.47;2.88;;;;;;;;;;5103633;28;41610;-68
2024/01/28 02:40:20;;;;;;;6.43;3.20;;;;;;;;;;5100188;27;41293;-68
2024/01/28 02:42:49;;;;;;;5.25;3.17;;;;;;;;;;5100429;27;41369;-68
2024/01/28 02:45:18;;;;;;;5.30;3.30;;;;;;;;;;5103558;27;42215;-68
2024/01/28 02:47:46;;;;;;;4.10;3.10;;;;;;;;;;5099006;27;39940;-68
2024/01/28 02:50:14;;;;;;;5.53;3.13;;;;;;;;;;5100095;27;42624;-69
2024/01/28 02:52:42;;;;;;;7.15;3.25;;;;;;;;;;5095324;27;43038;-68
2024/01/28 02:55:10;;;;;;;7.20;3.42;;;;;;;;;;5088210;28;40352;-68
2024/01/28 02:57:38;;;;;;;4.97;3.38;;;;;;;;;;5091788;27;40945;-68
2024/01/28 03:00:08;;;;;;;5.63;3.50;;;;;;;;;;5093576;28;41869;-68
2024/01/28 03:02:37;;;;;;;5.82;3.35;;;;;;;;;;5100303;27;40490;-68
2024/01/28 03:05:05;;;;;;;5.85;3.13;;;;;;;;;;5094821;28;41521;-68
2024/01/28 03:07:33;;;;;;;5.88;3.80;;;;;;;;;;5101612;27;40351;-68
2024/01/28 03:10:02;;;;;;;5.35;3.10;;;;;;;;;;5097005;27;41682;-68
2024/01/28 03:12:30;;;;;;;5.60;3.22;;;;;;;;;;5104292;27;42070;-67
2024/01/28 03:14:57;;;;;;;6.65;3.33;;;;;;;;;;5095486;27;41332;-68
2024/01/28 03:17:27;;;;;;;5.32;3.22;;;;;;;;;;5099474;28;41498;-68
2024/01/28 03:19:55;;;;;;;4.50;2.90;;;;;;;;;;5093054;28;43012;-68
2024/01/28 03:22:23;;;;;;;5.97;3.30;;;;;;;;;;5099956;27;39732;-68
2024/01/28 03:24:51;;;;;;;5.03;3.08;;;;;;;;;;5101680;27;41262;-68
2024/01/28 03:27:19;;;;;;;6.28;3.20;;;;;;;;;;5097396;27;39437;-68
2024/01/28 03:29:47;;;;;;;5.18;2.95;;;;;;;;;;5096396;27;42061;-68
2024/01/28 03:32:15;;;;;;;5.05;3.10;;;;;;;;;;5097734;27;42059;-68
2024/01/28 03:34:45;;;;;;;6.00;3.22;;;;;;;;;;5106442;27;39988;-68
2024/01/28 03:37:13;;;;;;;6.05;3.50;;;;;;;;;;5102625;27;40558;-68
2024/01/28 03:39:41;;;;;;;6.88;3.80;;;;;;;;;;5098188;27;42677;-68
2024/01/28 03:42:10;;;;;;;6.28;3.10;;;;;;;;;;5106858;27;39666;-68
2024/01/28 03:44:38;;;;;;;5.13;3.13;;;;;;;;;;5109278;27;42601;-68
2024/01/28 03:47:06;;;;;;;6.43;3.53;;;;;;;;;;5107151;27;42631;-68
2024/01/28 03:49:34;;;;;;;5.70;2.90;;;;;;;;;;5106936;27;42534;-67
2024/01/28 03:52:05;;;;;;;6.47;3.10;;;;;;;;;;5108859;27;41658;-67
2024/01/28 03:54:33;;;;;;;3.83;2.70;;;;;;;;;;5094995;27;41219;-68
2024/01/28 03:57:02;;;;;;;4.65;3.10;;;;;;;;;;5089890;28;41062;-68
2024/01/28 03:59:30;;;;;;;5.00;2.97;;;;;;;;;;5094624;27;42393;-67
2024/01/28 04:01:57;;;;;;;4.90;3.08;;;;;;;;;;5103801;27;40588;-68
2024/01/28 04:04:25;;;;;;;5.70;3.20;;;;;;;;;;5091002;28;41166;-68
2024/01/28 04:06:54;;;;;;;8.40;3.00;;;;;;;;;;5099671;27;41813;-67
2024/01/28 04:09:23;;;;;;;6.50;3.10;;;;;;;;;;5107117;27;41306;-68
2024/01/28 04:11:51;;;;;;;5.50;3.00;;;;;;;;;;5095387;28;42122;-68
2024/01/28 04:14:19;;;;;;;7.55;3.10;;;;;;;;;;5103766;27;41220;-68
2024/01/28 04:16:47;;;;;;;5.57;2.90;;;;;;;;;;5104388;27;42533;-68
2024/01/28 04:19:14;;;;;;;5.57;2.75;;;;;;;;;;5098717;27;42010;-68
2024/01/28 04:21:42;;;;;;;6.28;3.13;;;;;;;;;;5097809;28;40153;-67
2024/01/28 04:24:10;;;;;;;5.80;3.10;;;;;;;;;;5103489;27;40625;-68
2024/01/28 04:26:40;;;;;;;8.32;3.42;;;;;;;;;;5094538;27;41449;-68
2024/01/28 04:29:08;;;;;;;5.95;3.22;;;;;;;;;;5094139;27;40870;-67
2024/01/28 04:31:41;;;;;;;5.55;2.90;;;;;;;;;;5094495;27;43143;-67
2024/01/28 04:34:09;;;;;;;4.35;2.97;;;;;;;;;;5099961;28;39965;-67
2024/01/28 04:36:37;;;;;;;6.43;3.42;;;;;;;;;;5095026;27;42557;-68
2024/01/28 04:39:07;;;;;;;4.25;2.90;;;;;;;;;;5106958;27;42056;-67
2024/01/28 04:41:35;;;;;;;6.57;3.13;;;;;;;;;;5106929;27;40239;-68
2024/01/28 04:44:05;;;;;;;5.35;3.05;;;;;;;;;;5105324;27;40946;-68
2024/01/28 04:46:33;;;;;;;5.75;3.35;;;;;;;;;;5104642;27;41878;-68
2024/01/28 04:49:03;;;;;;;6.40;2.95;;;;;;;;;;5107820;28;41263;-68
2024/01/28 04:51:31;;;;;;;4.25;2.83;;;;;;;;;;5108617;27;41485;-68
2024/01/28 04:53:59;;;;;;;5.93;3.25;;;;;;;;;;5095786;27;39977;-68
2024/01/28 04:56:27;;;;;;;5.25;2.72;;;;;;;;;;5103258;27;42309;-69
2024/01/28 04:58:55;;;;;;;6.90;3.28;;;;;;;;;;5100248;27;41825;-69
2024/01/28 05:01:25;;;;;;;4.00;2.65;;;;;;;;;;5099620;28;39740;-70
2024/01/28 05:03:53;;;;;;;5.53;3.13;;;;;;;;;;5092642;28;42324;-69
2024/01/28 05:06:21;;;;;;;5.78;3.15;;;;;;;;;;5092777;28;40893;-70
2024/01/28 05:08:49;;;;;;;5.25;3.10;;;;;;;;;;5094283;27;40452;-69
2024/01/28 05:11:17;;;;;;;4.88;3.00;;;;;;;;;;5095898;27;41366;-69
2024/01/28 05:13:45;;;;;;;5.00;2.78;;;;;;;;;;5107736;27;42052;-67
2024/01/28 05:16:13;;;;;;;4.45;3.08;;;;;;;;;;5105959;27;42592;-69
2024/01/28 05:18:42;;;;;;;4.30;2.67;;;;;;;;;;5099984;27;41639;-69
2024/01/28 05:21:10;;;;;;;4.88;2.90;;;;;;;;;;5097006;27;40911;-69
2024/01/28 05:23:38;;;;;;;5.65;2.65;;;;;;;;;;5099494;27;41125;-69
2024/01/28 05:26:07;;;;;;;3.75;2.80;;;;;;;;;;5094724;28;41573;-69
2024/01/28 05:28:35;;;;;;;6.63;3.25;;;;;;;;;;5100808;27;40477;-69
2024/01/28 05:31:03;;;;;;;4.88;2.85;;;;;;;;;;5103273;27;41598;-69
2024/01/28 05:33:34;;;;;;;5.78;2.95;;;;;;;;;;5093975;27;42655;-69
2024/01/28 05:36:04;;;;;;;5.22;3.33;;;;;;;;;;5090283;27;41392;-69
2024/01/28 05:38:32;;;;;;;5.57;3.22;;;;;;;;;;5093665;27;42550;-69
2024/01/28 05:40:59;;;;;;;4.80;2.92;;;;;;;;;;5097531;27;42021;-69
2024/01/28 05:43:28;;;;;;;5.00;2.78;;;;;;;;;;5100052;27;41782;-69
2024/01/28 05:45:56;;;;;;;4.65;2.80;;;;;;;;;;5091304;27;41454;-68
2024/01/28 05:48:24;;;;;;;4.45;2.70;;;;;;;;;;5091023;28;40118;-69
2024/01/28 05:50:52;;;;;;;5.82;3.15;;;;;;;;;;5097160;27;42573;-68
2024/01/28 05:53:23;;;;;;;6.72;3.13;;;;;;;;;;5094002;27;42050;-68
2024/01/28 05:55:52;;;;;;;4.80;2.90;;;;;;;;;;5101071;28;41017;-69
2024/01/28 05:58:20;;;;;;;5.07;2.70;;;;;;;;;;5104296;28;42579;-69
2024/01/28 06:00:48;;;;;;;4.97;2.83;;;;;;;;;;5098816;27;40131;-69
2024/01/28 06:03:16;;;;;;;4.80;2.60;;;;;;;;;;5102155;28;41359;-69
2024/01/28 06:05:44;;;;;;;4.65;2.45;;;;;;;;;;5104457;27;41981;-69
2024/01/28 06:08:13;;;;;;;5.03;2.78;;;;;;;;;;5103866;27;41260;-69
2024/01/28 06:10:43;;;;;;;5.45;2.97;;;;;;;;;;5102829;27;41047;-69
2024/01/28 06:13:11;;;;;;;5.63;2.97;;;;;;;;;;5101326;27;41669;-69
2024/01/28 06:15:39;;;;;;;6.40;2.65;;;;;;;;;;5090952;27;40250;-68
2024/01/28 06:18:07;;;;;;;5.53;2.50;;;;;;;;;;5089593;27;41852;-69
2024/01/28 06:20:36;;;;;;;5.05;2.80;;;;;;;;;;5092116;28;40907;-69
2024/01/28 06:23:04;;;;;;;4.90;2.85;;;;;;;;;;5091942;28;41983;-69
2024/01/28 06:25:32;;;;;;;5.55;2.65;;;;;;;;;;5101216;28;41691;-69
2024/01/28 06:28:02;;;;;;;3.72;2.25;;;;;;;;;;5104413;27;41058;-69
2024/01/28 06:30:32;;;;;;;5.05;2.72;;;;;;;;;;5101701;27;41279;-69
2024/01/28 06:33:00;;;;;;;5.68;2.38;;;;;;;;;;5101012;27;42222;-69
2024/01/28 06:35:28;;;;;;;3.53;2.58;;;;;;;;;;5094227;27;41009;-69
2024/01/28 06:37:56;;;;;;;4.07;2.40;;;;;;;;;;5105853;27;42589;-69
2024/01/28 06:40:24;;;;;;;5.15;2.80;;;;;;;;;;5103135;27;43106;-69
2024/01/28 06:42:52;;;;;;;4.05;2.45;;;;;;;;;;5106708;27;42591;-69
2024/01/28 06:45:22;;;;;;;4.25;2.47;;;;;;;;;;5101828;27;43206;-69
2024/01/28 06:47:50;;;;;;;4.43;2.55;;;;;;;;;;5100122;28;40470;-69
2024/01/28 06:50:19;;;;;;;3.70;2.20;;;;;;;;;;5102221;27;42667;-69
2024/01/28 06:52:47;;;;;;;3.80;2.30;;;;;;;;;;5091693;27;41456;-69
2024/01/28 06:55:16;;;;;;;5.78;2.50;;;;;;;;;;5095315;28;41295;-69
2024/01/28 06:57:44;;;;;;;4.22;2.72;;;;;;;;;;5092955;27;42245;-69
2024/01/28 07:00:14;;;;;;;5.93;2.58;;;;;;;;;;5090377;28;41768;-69
2024/01/28 07:02:44;;;;;;;4.18;2.40;;;;;;;;;;5095398;28;41477;-69
2024/01/28 07:05:12;;;;;;;5.22;2.83;;;;;;;;;;5094562;27;42118;-69
2024/01/28 07:07:40;;;;;;;5.18;2.80;;;;;;;;;;5090978;28;39573;-69
2024/01/28 07:10:09;;;;;;;5.43;3.03;;;;;;;;;;5107165;27;42545;-69
2024/01/28 07:12:38;;;;;;;6.03;3.15;;;;;;;;;;5106415;27;41839;-69
2024/01/28 07:15:06;;;;;;;4.97;2.60;;;;;;;;;;5093372;27;40435;-69
2024/01/28 07:17:35;;;;;;;6.72;2.63;;;;;;;;;;5093706;27;42105;-69
2024/01/28 07:20:05;;;;;;;4.05;2.08;;;;;;;;;;5104935;28;43098;-69
2024/01/28 07:22:33;;;;;;;4.72;2.47;;;;;;;;;;5108363;27;41380;-69
2024/01/28 07:25:01;;;;;;;5.20;2.58;;;;;;;;;;5099037;27;42265;-69
2024/01/28 07:27:29;;;;;;;5.22;2.47;;;;;;;;;;5103840;27;41313;-69
2024/01/28 07:29:57;;;;;;;4.10;2.30;;;;;;;;;;5098342;27;42677;-69
2024/01/28 07:32:25;;;;;;;4.50;2.60;;;;;;;;;;5099876;27;41918;-69
2024/01/28 07:34:53;;;;;;;4.75;2.50;;;;;;;;;;5093921;27;40305;-69
2024/01/28 07:37:22;;;;;;;5.32;2.85;;;;;;;;;;5095797;27;41709;-69
2024/01/28 07:39:50;;;;;;;4.75;2.45;;;;;;;;;;5102368;27;43060;-69
2024/01/28 07:42:18;;;;;;;4.65;2.40;;;;;;;;;;5103614;27;40172;-69
2024/01/28 07:44:49;;;;;;;5.35;3.03;;;;;;;;;;5095074;28;42110;-69
2024/01/28 07:47:16;;;;;;;5.07;2.60;;;;;;;;;;5096464;28;41997;-69
2024/01/28 07:49:44;;;;;;;5.65;2.63;;;;;;;;;;5095315;27;42120;-68
2024/01/28 07:52:12;;;;;;;4.38;2.53;;;;;;;;;;5097095;28;42178;-68
2024/01/28 07:54:42;;;;;;;6.22;2.55;;;;;;;;;;5097388;28;40109;-68
2024/01/28 07:57:10;;;;;;;3.60;2.22;;;;;;;;;;5097145;28;42062;-68
2024/01/28 07:59:38;;;;;;;3.90;2.35;;;;;;;;;;5098767;27;43221;-68
2024/01/28 08:02:05;;;;;;;3.90;2.47;;;;;;;;;;5101154;27;40276;-68
2024/01/28 08:04:33;;;;;;;5.00;2.70;;;;;;;;;;5091425;27;41686;-68
2024/01/28 08:07:01;;;;;;;3.38;2.50;;;;;;;;;;5095008;27;42003;-68
2024/01/28 08:09:33;;;;;;;3.75;2.58;;;;;;;;;;5099567;27;40051;-68
2024/01/28 08:12:03;;;;;;;6.03;2.75;;;;;;;;;;5100887;27;42118;-68
2024/01/28 08:14:31;;;;;;;4.90;2.47;;;;;;;;;;5105174;27;40204;-68
2024/01/28 08:16:59;;;;;;;5.93;2.20;;;;;;;;;;5102447;27;41003;-66
2024/01/28 08:19:26;;;;;;;4.43;2.30;;;;;;;;;;5099009;27;42666;-66
2024/01/28 08:21:55;;;;;;;4.97;2.35;;;;;;;;;;5094655;27;41413;-66
2024/01/28 08:24:23;;;;;;;5.57;2.60;;;;;;;;;;5104158;27;42197;-66
2024/01/28 08:26:51;;;;;;;3.45;1.90;;;;;;;;;;5102310;28;41768;-73
2024/01/28 08:29:22;;;;;;;5.13;2.65;;;;;;;;;;5095800;27;39834;-71
2024/01/28 08:31:50;;;;;;;3.92;2.47;;;;;;;;;;5103414;27;41521;-74
2024/01/28 08:34:18;;;;;;;6.80;2.75;;;;;;;;;;5106851;28;39771;-72
2024/01/28 08:36:45;;;;;;;8.15;3.08;;;;;;;;;;5106759;27;41023;-74
2024/01/28 08:39:15;;;;;;;8.18;3.08;;;;;;;;;;5105293;27;41479;-71
2024/01/28 08:41:43;;;;;;;7.93;3.55;;;;;;;;;;5106176;27;40395;-71
2024/01/28 08:44:11;;;;;;;7.95;3.05;;;;;;;;;;5103685;27;42578;-73
2024/01/28 08:46:41;;;;;;;6.75;2.35;;;;;;;;;;5095940;27;42106;-72
2024/01/28 08:49:08;;;;;;;8.38;2.25;;;;;;;;;;5093013;27;40491;-72
2024/01/28 08:51:39;;;;;;;5.38;2.45;;;;;;;;;;5108543;27;42120;-73
2024/01/28 08:54:07;;;;;;;8.27;3.15;;;;;;;;;;5091494;28;40053;-72
2024/01/28 08:56:35;;;;;;;7.65;2.70;;;;;;;;;;5092689;27;43101;-71
2024/01/28 08:59:03;;;;;;;5.63;2.95;;;;;;;;;;5099774;28;42615;-70
2024/01/28 09:01:30;;;;;;;7.20;2.58;;;;;;;;;;5093972;27;39872;-70
2024/01/28 09:04:00;;;;;;;7.75;2.95;;;;;;;;;;5100297;27;42306;-71
2024/01/28 09:06:28;;;;;;;8.05;2.65;;;;;;;;;;5108049;27;41977;-71
2024/01/28 09:08:56;;;;;;;8.52;2.78;;;;;;;;;;5101017;27;41382;-69
2024/01/28 09:11:24;;;;;;;7.13;3.03;;;;;;;;;;5093160;28;42206;-67
2024/01/28 09:13:52;;;;;;;9.45;3.25;;;;;;;;;;5094006;27;42887;-66
2024/01/28 09:16:20;;;;;;;7.75;2.40;;;;;;;;;;5100738;27;42551;-67
2024/01/28 09:18:48;;;;;;;8.82;3.00;;;;;;;;;;5108181;27;42074;-66
2024/01/28 09:21:18;;;;;;;6.65;2.60;;;;;;;;;;5107748;27;40888;-67
2024/01/28 09:23:46;;;;;;;6.35;2.88;;;;;;;;;;5103457;27;41557;-70
2024/01/28 09:26:14;;;;;;;16.02;3.13;;;;;;;;;;5097731;28;42533;-69
2024/01/28 09:28:42;;;;;;;6.40;2.50;;;;;;;;;;5094818;27;41150;-70
2024/01/28 09:31:10;;;;;;;6.03;2.65;;;;;;;;;;5100671;27;41482;-69
2024/01/28 09:33:38;;;;;;;4.78;2.50;;;;;;;;;;5096565;27;42062;-69
2024/01/28 09:36:07;;;;;;;7.07;2.85;;;;;;;;;;5097843;27;41400;-69
2024/01/28 09:38:40;;;;;;;6.55;2.58;;;;;;;;;;5102936;27;42059;-69
2024/01/28 09:41:11;;;;;;;8.07;2.20;;;;;;;;;;5106125;27;40012;-69
2024/01/28 09:43:41;;;;;;;6.60;2.40;;;;;;;;;;5103734;28;41632;-70
2024/01/28 09:46:09;;;;;;;3.85;2.10;;;;;;;;;;5095260;28;43115;-85
2024/01/28 09:48:37;;;;;;;11.98;2.90;;;;;;;;;;5108565;27;39410;-74
2024/01/28 09:51:06;;;;;;;4.82;2.30;;;;;;;;;;5089750;27;42406;-80
2024/01/28 09:53:34;;;;;;;5.15;2.22;;;;;;;;;;5097247;27;41645;-84
2024/01/28 09:56:04;;;;;;;6.90;2.33;;;;;;;;;;5105286;27;39602;-82
2024/01/28 09:58:31;;;;;;;6.07;2.28;;;;;;;;;;5107279;28;41649;-83
2024/01/28 10:00:59;;;;;;;10.73;3.03;;;;;;;;;;5093193;28;39739;-76
2024/01/28 10:03:28;;;;;;;6.50;2.80;;;;;;;;;;5098015;27;41678;-76
2024/01/28 10:05:56;;;;;;;6.75;2.80;;;;;;;;;;5096281;27;43097;-77
2024/01/28 10:08:26;;;;;;;5.68;2.58;;;;;;;;;;5091718;28;40806;-74
2024/01/28 10:10:54;;;;;;;9.30;2.90;;;;;;;;;;5087134;28;41675;-74
2024/01/28 10:13:23;;;;;;;7.50;2.40;;;;;;;;;;5097676;27;42018;-74
2024/01/28 10:15:55;;;;;;;7.47;2.25;;;;;;;;;;5097098;27;41084;-75
2024/01/28 10:18:24;;;;;;;5.30;2.40;;;;;;;;;;5094102;27;42630;-76
2024/01/28 10:20:52;;;;;;;7.30;3.17;;;;;;;;;;5093126;27;33380;-73
2024/01/28 10:23:20;;;;;;;4.78;2.45;;;;;;;;;;5104645;27;41687;-75
2024/01/28 10:25:48;;;;;;;7.78;2.50;;;;;;;;;;5106765;27;42518;-77
2024/01/28 10:28:16;;;;;;;13.45;2.55;;;;;;;;;;5108381;27;41229;-76
2024/01/28 10:30:48;;;;;;;4.97;2.45;;;;;;;;;;5103917;27;41440;-79
2024/01/28 10:33:16;;;;;;;6.20;2.75;;;;;;;;;;5101046;28;41855;-77
2024/01/28 10:35:45;;;;;;;5.15;2.55;;;;;;;;;;5107757;27;40637;-75
2024/01/28 10:38:14;;;;;;;7.00;2.42;;;;;;;;;;5101227;27;41505;-77
2024/01/28 10:40:42;;;;;;;5.75;2.30;;;;;;;;;;5102273;27;43162;-74
2024/01/28 10:43:11;;;;;;;5.53;2.33;;;;;;;;;;5108123;27;41398;-76
2024/01/28 10:45:39;;;;;;;7.25;2.45;;;;;;;;;;5092079;27;42152;-78
2024/01/28 10:48:12;;;;;;;5.28;2.42;;;;;;;;;;5103100;27;39871;-75
2024/01/28 10:50:40;;;;;;;6.70;2.08;;;;;;;;;;5105666;27;41151;-77
2024/01/28 10:53:08;;;;;;;4.90;1.83;;;;;;;;;;5100534;27;42020;-75
2024/01/28 10:55:36;;;;;;;15.77;3.03;;;;;;;;;;5099402;27;40572;-78
2024/01/28 10:58:04;;;;;;;4.88;2.20;;;;;;;;;;5092671;28;41886;-80
2024/01/28 11:00:32;;;;;;;6.10;2.78;;;;;;;;;;5097127;27;42331;-79
2024/01/28 11:03:01;;;;;;;3.78;2.40;;;;;;;;;;5093568;28;20371;-81
2024/01/28 11:05:30;;;;;;;5.53;2.10;;;;;;;;;;5080579;27;43187;-73
2024/01/28 11:08:00;;;;;;;14.25;3.17;;;;;;;;;;5098020;28;40273;-73
2024/01/28 11:10:28;;;;;;;9.13;3.15;;;;;;;;;;5104737;27;41610;-73
2024/01/28 11:12:57;;;;;;;9.82;2.95;;;;;;;;;;5103709;27;41534;-73
2024/01/28 11:15:26;;;;;;;14.32;2.95;;;;;;;;;;5102751;27;39917;-72
2024/01/28 11:17:55;;;;;;;11.82;2.35;;;;;;;;;;5100146;28;42329;-71
2024/01/28 11:20:24;;;;;;;17.25;2.72;;;;;;;;;;5102899;28;41914;-70
2024/01/28 11:22:53;;;;;;;11.70;2.75;;;;;;;;;;5104074;27;40286;-73
2024/01/28 11:25:24;;;;;;;11.68;3.00;;;;;;;;;;5104043;28;43321;-74
2024/01/28 11:27:52;;;;;;;6.72;2.75;;;;;;;;;;5108322;27;40321;-78
2024/01/28 11:30:21;;;;;;;6.55;2.00;;;;;;;;;;5105252;27;41305;-76
2024/01/28 11:32:49;;;;;;;7.38;2.38;;;;;;;;;;5105449;27;42094;-74
2024/01/28 11:35:17;;;;;;;10.23;2.47;;;;;;;;;;5094722;27;39965;-75
2024/01/28 11:37:50;;;;;;;7.40;2.45;;;;;;;;;;5106783;27;41598;-78
2024/01/28 11:40:23;;;;;;;7.90;2.67;;;;;;;;;;5097861;27;41618;-74
2024/01/28 11:42:52;;;;;;;7.13;2.47;;;;;;;;;;5102044;27;39701;-76
2024/01/28 11:45:21;;;;;;;9.90;2.50;;;;;;;;;;5105499;28;41857;-74
2024/01/28 11:47:49;;;;;;;11.43;2.65;;;;;;;;;;5104174;27;42739;-79
2024/01/28 11:50:17;;;;;;;8.73;2.90;;;;;;;;;;5100405;28;41221;-73
2024/01/28 11:52:45;;;;;;;11.10;2.70;;;;;;;;;;5091948;28;41765;-71
2024/01/28 11:55:13;;;;;;;7.32;2.88;;;;;;;;;;5092295;28;40064;-68
2024/01/28 11:57:43;;;;;;;6.25;2.38;;;;;;;;;;5106095;27;41965;-72
2024/01/28 12:00:11;;;;;;;9.55;2.50;;;;;;;;;;5092066;28;41980;-78
2024/01/28 12:02:39;;;;;;;6.70;2.50;;;;;;;;;;5097421;27;40052;-79
2024/01/28 12:05:10;;;;;;;7.03;2.30;;;;;;;;;;5092166;27;41304;-75
2024/01/28 12:07:38;;;;;;;7.85;2.20;;;;;;;;;;5100977;27;42617;-72
2024/01/28 12:10:07;;;;;;;10.52;2.47;;;;;;;;;;5109431;27;40395;-73
2024/01/28 12:12:35;;;;;;;10.55;3.20;;;;;;;;;;5109479;27;41903;-79
2024/01/28 12:15:05;;;;;;;10.43;2.60;;;;;;;;;;5109389;27;40867;-80
2024/01/28 12:17:36;;;;;;;10.20;2.83;;;;;;;;;;5107394;27;42501;-80
2024/01/28 12:20:05;;;;;;;9.23;2.20;;;;;;;;;;5106361;27;42329;-80
2024/01/28 12:22:37;;;;;;;9.88;3.47;;;;;;;;;;5109563;27;40475;-80
2024/01/28 12:25:08;;;;;;;9.60;2.55;;;;;;;;;;5104065;27;41746;-80
2024/01/28 12:27:37;;;;;;;5.38;2.88;;;;;;;;;;5103911;27;41982;-80
2024/01/28 12:30:07;;;;;;;5.50;2.75;;;;;;;;;;5107507;27;40960;-80
2024/01/28 12:32:35;;;;;;;7.25;2.30;;;;;;;;;;5101916;27;42407;-80
2024/01/28 12:35:06;;;;;;;5.75;2.45;;;;;;;;;;5102309;27;41325;-80
2024/01/28 12:37:35;;;;;;;6.35;2.42;;;;;;;;;;5106534;27;41769;-79
2024/01/28 12:40:03;;;;;;;7.10;2.20;;;;;;;;;;5105970;27;41765;-80
2024/01/28 12:42:32;;;;;;;8.55;2.45;;;;;;;;;;5093997;27;39839;-80
2024/01/28 12:44:59;;;;;;;7.60;2.60;;;;;;;;;;5108905;27;41860;-80
2024/01/28 12:47:29;;;;;;;4.30;1.98;;;;;;;;;;5108857;27;42166;-79
2024/01/28 12:49:57;;;;;;;4.68;2.00;;;;;;;;;;5108988;27;40149;-79
2024/01/28 12:52:25;;;;;;;5.18;2.15;;;;;;;;;;5108024;27;42072;-80
2024/01/28 12:54:53;;;;;;;4.30;2.40;;;;;;;;;;5094601;27;40917;-79
2024/01/28 12:57:21;;;;;;;8.93;2.25;;;;;;;;;;5108830;27;41112;-79
2024/01/28 12:59:49;;;;;;;4.35;2.35;;;;;;;;;;5107856;27;42390;-80
2024/01/28 13:02:17;;;;;;;4.30;2.42;;;;;;;;;;5109041;27;39941;-80
2024/01/28 13:04:47;;;;;;;7.80;2.40;;;;;;;;;;5108392;27;41257;-80
2024/01/28 13:07:15;;;;;;;5.18;2.22;;;;;;;;;;5108295;27;42718;-80
2024/01/28 13:09:43;;;;;;;5.60;2.45;;;;;;;;;;5108540;27;40973;-79
2024/01/28 13:12:11;;;;;;;5.38;2.42;;;;;;;;;;5095335;27;41309;-79
2024/01/28 13:14:39;;;;;;;7.00;2.47;;;;;;;;;;5108673;27;42705;-80
2024/01/28 13:17:07;;;;;;;6.35;2.17;;;;;;;;;;5108178;27;41110;-79
2024/01/28 13:19:35;;;;;;;3.58;1.70;;;;;;;;;;5107711;27;41767;-79
2024/01/28 13:22:05;;;;;;;6.28;2.13;;;;;;;;;;5108796;27;40055;-79
2024/01/28 13:24:33;;;;;;;4.80;2.22;;;;;;;;;;5106712;27;42541;-79
2024/01/28 13:27:01;;;;;;;5.85;2.42;;;;;;;;;;5104692;27;42977;-79
2024/01/28 13:29:35;;;;;;;4.18;2.35;;;;;;;;;;5108153;27;40316;-79
2024/01/28 13:32:03;;;;;;;4.82;2.53;;;;;;;;;;5105669;27;42096;-79
2024/01/28 13:34:31;;;;;;;4.93;2.25;;;;;;;;;;5093076;28;41622;-79
2024/01/28 13:36:59;;;;;;;4.53;1.80;;;;;;;;;;5102730;28;40219;-79
2024/01/28 13:39:28;;;;;;;3.58;2.10;;;;;;;;;;5108743;27;41602;-78
2024/01/28 13:41:56;;;;;;;5.88;2.30;;;;;;;;;;5107474;27;40135;-78
2024/01/28 13:44:24;;;;;;;4.38;2.22;;;;;;;;;;5094786;28;41897;-78
2024/01/28 13:46:52;;;;;;;4.75;2.42;;;;;;;;;;5104889;27;42637;-78
2024/01/28 13:49:23;;;;;;;4.78;1.98;;;;;;;;;;5096870;28;40175;-76
2024/01/28 13:51:51;;;;;;;5.75;2.53;;;;;;;;;;5106367;27;42622;-74
2024/01/28 13:54:20;;;;;;;5.50;2.33;;;;;;;;;;5093659;27;41995;-68
2024/01/28 13:56:49;;;;;;;5.53;2.28;;;;;;;;;;5101700;27;40471;-72
2024/01/28 13:59:17;;;;;;;4.25;2.03;;;;;;;;;;5099605;27;42184;-71
2024/01/28 14:01:45;;;;;;;4.35;1.83;;;;;;;;;;5099942;27;40076;-71
2024/01/28 14:04:14;;;;;;;6.63;1.95;;;;;;;;;;5102796;27;41864;-71
2024/01/28 14:06:42;;;;;;;5.32;2.08;;;;;;;;;;5099376;27;43169;-71
2024/01/28 14:09:11;;;;;;;5.97;2.17;;;;;;;;;;5101814;27;39956;-71
2024/01/28 14:11:39;;;;;;;4.10;2.30;;;;;;;;;;5099503;27;41153;-71
2024/01/28 14:14:08;;;;;;;3.58;2.30;;;;;;;;;;5103159;27;41850;-71
2024/01/28 14:16:36;;;;;;;7.00;2.13;;;;;;;;;;5104930;27;40312;-71
2024/01/28 14:19:04;;;;;;;3.90;2.15;;;;;;;;;;5104258;27;41368;-71
2024/01/28 14:21:32;;;;;;;6.57;2.30;;;;;;;;;;5102482;27;42271;-69
2024/01/28 14:24:00;;;;;;;5.32;2.40;;;;;;;;;;5101443;27;41145;-72
2024/01/28 14:26:28;;;;;;;7.25;2.40;;;;;;;;;;5103192;27;42065;-74
2024/01/28 14:28:56;;;;;;;5.55;2.20;;;;;;;;;;5109127;27;40731;-75
2024/01/28 14:31:26;;;;;;;3.80;2.08;;;;;;;;;;5102361;27;41851;-70
2024/01/28 14:33:53;;;;;;;5.07;2.45;;;;;;;;;;5101878;28;43049;-69
2024/01/28 14:36:22;;;;;;;12.68;2.40;;;;;;;;;;5101238;27;40199;-75
2024/01/28 14:38:50;;;;;;;5.65;2.15;;;;;;;;;;5085344;27;39579;-76
2024/01/28 14:41:18;;;;;;;6.50;2.30;;;;;;;;;;5101911;27;41363;-75
2024/01/28 14:43:48;;;;;;;8.70;2.72;;;;;;;;;;5098554;27;41599;-74
2024/01/28 14:46:15;;;;;;;6.00;1.92;;;;;;;;;;5099823;27;43198;-74
2024/01/28 14:48:45;;;;;;;7.85;2.30;;;;;;;;;;5102494;27;40214;-74
2024/01/28 14:51:13;;;;;;;6.57;2.40;;;;;;;;;;5096405;27;42685;-76